Flight Track Log - Related Links

Times and Time Zones

All times are in EDT time to prevent confusion due to time zone crossing. See the TAM3224 flight status page for this flight to view local times or setup timezone preferences in your user account.


Time Position Orientation Groundspeed Altitude Reporting Facility
EDT Latitude Longitude Course Direction KTS MPH feet Rate Location/Type
Tue 05:50:04 PM -23.6180 -46.6620 52° Northeast 158 182 3,000  Level FlightAware ADS-B
Tue 05:50:19 PM -23.6090 -46.6680 329° Northwest 158 182 3,700 2,400 Climbing FlightAware ADS-B
Tue 05:50:29 PM -23.6010 -46.6720 335° Northwest 183 211 4,000 2,000 Climbing FlightAware ADS-B
Tue 05:50:34 PM -23.5970 -46.6730 347° North 181 208 4,200 2,600 Climbing FlightAware ADS-B
Tue 05:50:59 PM -23.5780 -46.6590 34° Northeast 226 260 5,300 2,400 Climbing FlightAware ADS-B
Tue 05:51:09 PM -23.5760 -46.6470 80° East 239 275 5,600 1,200 Climbing FlightAware ADS-B
Tue 05:51:29 PM -23.5830 -46.6250 109° East 237 273 5,900 450 Climbing FlightAware ADS-B
Tue 05:51:49 PM -23.5940 -46.6070 124° Southeast 234 269 5,900 300 Level FlightAware ADS-B
Tue 05:52:09 PM -23.6080 -46.5850 125° Southeast 234 269 6,100 720 Climbing FlightAware ADS-B
Tue 05:52:14 PM -23.6090 -46.5800 102° East 238 274 6,200 2,400 Climbing FlightAware ADS-B
Tue 05:52:19 PM -23.6100 -46.5730 99° East 244 281 6,500 2,667 Climbing FlightAware ADS-B
Tue 05:52:41 PM -23.6050 -46.5450 79° East 265 305 7,400 2,286 Climbing FlightAware ADS-B
Tue 05:53:01 PM -23.5980 -46.5160 75° East 297 342 8,100 2,154 Climbing FlightAware ADS-B
Tue 05:53:20 PM -23.5910 -46.4880 75° East 319 367 8,800 2,333 Climbing FlightAware ADS-B
Tue 05:53:37 PM -23.5850 -46.4600 77° East 336 387 9,500 1,784 Climbing FlightAware ADS-B
Tue 05:53:57 PM -23.5770 -46.4270 75° East 350 403 9,900 923 Climbing FlightAware ADS-B
Tue 05:54:29 PM -23.5640 -46.3710 76° East 365 420 10,300 1,179 Climbing FlightAware ADS-B
Tue 05:54:53 PM -23.5520 -46.3280 73° East 387 445 11,000 2,000 Climbing FlightAware ADS-B
Tue 05:55:05 PM -23.5390 -46.3090 53° Northeast 381 438 11,500 2,700 Climbing FlightAware ADS-B
Tue 05:55:13 PM -23.5270 -46.2990 37° Northeast 372 428 11,900 3,667 Climbing FlightAware ADS-B
Tue 05:55:23 PM -23.5120 -46.2920 23° Northeast 353 406 12,600 3,875 Climbing FlightAware ADS-B
Tue 05:56:01 PM -23.4560 -46.2760 15° North 337 388 15,000 3,040 Climbing FlightAware ADS-B
Tue 05:56:38 PM -23.3970 -46.2600 14° North 358 412 16,400 2,314 Climbing FlightAware ADS-B
Tue 05:57:11 PM -23.3420 -46.2440 15° North 374 430 17,700 2,507 Climbing FlightAware ADS-B
Tue 05:57:45 PM -23.2840 -46.2270 15° North 382 440 19,200 2,500 Climbing FlightAware ADS-B
Tue 05:58:23 PM -23.2210 -46.2080 15° North 389 448 20,700 2,278 Climbing FlightAware ADS-B
Tue 05:59:04 PM -23.1470 -46.1870 15° North 404 465 22,200 2,053 Climbing FlightAware ADS-B
Tue 05:59:39 PM -23.0850 -46.1600 22° Northeast 424 488 23,300 1,457 Climbing FlightAware ADS-B
Tue 06:00:14 PM -23.0220 -46.1220 29° Northeast 447 514 23,900 1,333 Climbing FlightAware ADS-B
Tue 06:00:51 PM -22.9560 -46.0750 33° Northeast 455 524 24,900 1,870 Climbing FlightAware ADS-B
Tue 06:01:31 PM -22.8840 -46.0270 32° Northeast 456 525 26,300 2,080 Climbing FlightAware ADS-B
Tue 06:02:06 PM -22.8190 -45.9830 32° Northeast 456 525 27,500 1,920 Climbing FlightAware ADS-B
Tue 06:02:46 PM -22.7470 -45.9340 32° Northeast 458 527 28,700 2,027 Climbing FlightAware ADS-B
Tue 06:03:20 PM -22.6820 -45.8900 32° Northeast 456 525 30,000 1,886 Climbing FlightAware ADS-B
Tue 06:03:56 PM -22.6190 -45.8480 32° Northeast 461 531 30,900 1,352 Climbing FlightAware ADS-B
Tue 06:04:31 PM -22.5530 -45.8030 32° Northeast 476 548 31,600 1,286 Climbing FlightAware ADS-B
Tue 06:05:06 PM -22.4910 -45.7610 32° Northeast 474 545 32,400 1,200 Climbing FlightAware ADS-B
Tue 06:05:41 PM -22.4200 -45.7130 32° Northeast 491 565 33,000 514 Climbing FlightAware ADS-B
Tue 06:06:16 PM -22.3530 -45.6680 32° Northeast 515 593 33,000  Level FlightAware ADS-B
Tue 06:07:06 PM -22.2490 -45.5980 32° Northeast 531 611 33,000  Level FlightAware ADS-B
Tue 06:07:41 PM -22.1760 -45.5490 32° Northeast 530 610 33,000  Level FlightAware ADS-B
Tue 06:08:22 PM -22.1060 -45.5020 32° Northeast 530 610 33,000  Level FlightAware ADS-B
Tue 06:08:54 PM -22.0350 -45.4550 32° Northeast 530 610 33,000  Level FlightAware ADS-B
Tue 06:09:29 PM -21.9690 -45.4110 32° Northeast 529 609 33,000  Level FlightAware ADS-B
Tue 06:10:21 PM -21.8420 -45.3260 32° Northeast 519 597 33,000  Level FlightAware ADS-B
Tue 06:10:56 PM -21.7700 -45.2770 32° Northeast 518 596 33,000  Level FlightAware ADS-B
Tue 06:11:31 PM -21.6980 -45.2290 32° Northeast 519 597 33,000  Level FlightAware ADS-B
Tue 06:12:06 PM -21.6290 -45.1830 32° Northeast 526 605 33,000 -86 Level FlightAware ADS-B
Tue 06:12:41 PM -21.5500 -45.1310 31° Northeast 530 610 32,900 -1,457 Descending FlightAware ADS-B
Tue 06:13:16 PM -21.4790 -45.0830 32° Northeast 535 616 31,300 -2,519 Descending FlightAware ADS-B
Tue 06:14:02 PM -21.3820 -45.0180 32° Northeast 518 596 29,500 -1,816 Descending FlightAware ADS-B
Tue 06:14:32 PM -21.3220 -44.9790 31° Northeast 521 600 29,000 -462 Descending FlightAware ADS-B
Tue 06:15:07 PM -21.2500 -44.9310 32° Northeast 516 594 29,000  Level FlightAware ADS-B
Tue 06:15:42 PM -21.1780 -44.8830 32° Northeast 516 594 29,000  Level FlightAware ADS-B
Tue 06:16:22 PM -21.0980 -44.8310 31° Northeast 516 594 29,000  Level FlightAware ADS-B
Tue 06:16:52 PM -21.0380 -44.7910 32° Northeast 512 589 29,000  Level FlightAware ADS-B
Tue 06:17:27 PM -20.9620 -44.7550 24° Northeast 504 580 29,000  Level FlightAware ADS-B
Tue 06:18:02 PM -20.8870 -44.7240 21° North 486 559 29,000 -320 Level FlightAware ADS-B
Tue 06:18:42 PM -20.8040 -44.6880 22° Northeast 482 555 28,600 -1,371 Descending FlightAware ADS-B
Tue 06:19:12 PM -20.7420 -44.6620 21° North 481 554 27,400 -2,031 Descending FlightAware ADS-B
Tue 06:19:47 PM -20.6730 -44.6320 22° Northeast 466 536 26,400 -2,229 Descending FlightAware ADS-B
Tue 06:20:22 PM -20.5970 -44.6000 22° Northeast 480 552 24,800 -2,486 Descending FlightAware ADS-B
Tue 06:20:57 PM -20.5260 -44.5710 21° North 465 535 23,500 -2,743 Descending FlightAware ADS-B
Tue 06:21:32 PM -20.4580 -44.5420 22° Northeast 457 526 21,600 -2,743 Descending FlightAware ADS-B
Tue 06:22:07 PM -20.3890 -44.5120 22° Northeast 440 506 20,300 -1,200 Descending FlightAware ADS-B
Tue 06:22:47 PM -20.3180 -44.4820 22° Northeast 388 447 20,100 -514 Descending FlightAware ADS-B
Tue 06:23:17 PM -20.2720 -44.4620 22° Northeast 366 421 19,700 -1,108 Descending FlightAware ADS-B
Tue 06:23:52 PM -20.2160 -44.4390 21° North 355 409 18,900 -1,457 Descending FlightAware ADS-B
Tue 06:24:27 PM -20.1630 -44.4160 22° Northeast 342 394 18,000 -2,057 Descending FlightAware ADS-B
Tue 06:25:02 PM -20.1140 -44.3960 21° North 330 380 16,500 -2,640 Descending FlightAware ADS-B
Tue 06:25:42 PM -20.0560 -44.3720 21° North 322 371 14,700 -2,492 Descending FlightAware ADS-B
Tue 06:26:07 PM -20.0200 -44.3670 North 308 354 13,800 -1,969 Descending FlightAware ADS-B
Tue 06:26:46 PM -19.9670 -44.3640 North 285 328 12,600 -1,595 Descending FlightAware ADS-B
Tue 06:27:26 PM -19.9150 -44.3620 North 277 319 11,700 -1,286 Descending FlightAware ADS-B
Tue 06:27:56 PM -19.8770 -44.3600 North 271 312 11,100 -609 Descending FlightAware ADS-B
Tue 06:28:35 PM -19.8260 -44.3560 North 273 314 11,000 -257 Descending FlightAware ADS-B
Tue 06:29:06 PM -19.7890 -44.3530 North 260 299 10,800 -545 Descending FlightAware ADS-B
Tue 06:29:41 PM -19.7490 -44.3500 North 243 280 10,400 -649 Descending FlightAware ADS-B
Tue 06:30:20 PM -19.7050 -44.3450 North 225 259 10,000 -320 Descending FlightAware ADS-B
Tue 06:30:56 PM -19.6710 -44.3420 North 227 261 10,000  Level FlightAware ADS-B
Tue 06:31:17 PM -19.6480 -44.3400 North 229 264 10,000  Level FlightAware ADS-B
Tue 06:31:51 PM -19.6110 -44.3370 North 228 262 10,000  Level FlightAware ADS-B
Tue 06:32:21 PM -19.5820 -44.3340 North 228 262 10,000 -480 Level FlightAware ADS-B
Tue 06:32:41 PM -19.5580 -44.3320 North 235 270 9,600 -1,800 Descending FlightAware ADS-B
Tue 06:33:01 PM -19.5350 -44.3300 North 252 290 8,800 -2,400 Descending FlightAware ADS-B
Tue 06:33:11 PM -19.5230 -44.3290 North 260 299 8,400 -2,229 Descending FlightAware ADS-B
Tue 06:33:36 PM -19.4920 -44.3250 North 279 321 7,500 -2,069 Descending FlightAware ADS-B
Tue 06:33:40 PM -19.4860 -44.3230 17° North 281 323 7,400 -1,200 Descending FlightAware ADS-B
Tue 06:33:46 PM -19.4810 -44.3190 37° Northeast 282 325 7,300 -750 Descending FlightAware ADS-B
Tue 06:33:56 PM -19.4710 -44.3090 43° Northeast 280 322 7,200 -387 Descending FlightAware ADS-B
Tue 06:34:17 PM -19.4550 -44.2880 51° Northeast 264 304 7,100 -533 Descending FlightAware ADS-B
Tue 06:34:41 PM -19.4380 -44.2650 52° Northeast 248 285 6,800 -698 Descending FlightAware ADS-B
Tue 06:35:00 PM -19.4260 -44.2440 59° Northeast 245 282 6,600 -500 Descending FlightAware ADS-B
Tue 06:35:05 PM -19.4250 -44.2370 81° East 245 282 6,600 -766 Level FlightAware ADS-B
Tue 06:35:47 PM -19.4370 -44.1910 105° East 239 275 6,000 -689 Descending FlightAware ADS-B
Tue 06:36:06 PM -19.4430 -44.1700 107° East 239 275 5,900 -136 Descending FlightAware ADS-B
Tue 06:36:31 PM -19.4520 -44.1430 109° East 215 247 5,900  Level FlightAware ADS-B
Tue 06:36:41 PM -19.4560 -44.1360 121° Southeast 202 232 5,900  Level FlightAware ADS-B
Tue 06:36:51 PM -19.4620 -44.1280 129° Southeast 191 220 5,900  Level FlightAware ADS-B
Tue 06:37:10 PM -19.4750 -44.1150 137° Southeast 174 200 5,900  Level FlightAware ADS-B
Tue 06:37:30 PM -19.4870 -44.1040 139° Southeast 168 193 5,900 -162 Level FlightAware ADS-B
Tue 06:37:47 PM -19.4960 -44.0960 140° Southeast 168 193 5,800 -750 Descending FlightAware ADS-B
Tue 06:38:10 PM -19.5110 -44.0820 139° Southeast 168 193 5,400 -923 Descending FlightAware ADS-B
Tue 06:38:26 PM -19.5190 -44.0750 140° Southeast 169 194 5,200 -900 Descending FlightAware ADS-B
Tue 06:38:50 PM -19.5340 -44.0610 139° Southeast 170 196 4,800 -818 Descending FlightAware ADS-B
Tue 06:39:10 PM -19.5460 -44.0500 139° Southeast 159 183 4,600 -732 Descending FlightAware ADS-B
Tue 06:39:31 PM -19.5560 -44.0400 137° Southeast 149 171 4,300 -732 Descending FlightAware ADS-B
Tue 06:39:51 PM -19.5660 -44.0320 143° Southeast 140 161 4,100 -750 Descending FlightAware ADS-B
Tue 06:40:11 PM -19.5760 -44.0220 137° Southeast 139 160 3,800 -818 Descending FlightAware ADS-B
Tue 06:40:35 PM -19.5870 -44.0120 139° Southeast 141 162 3,500 -682 Descending FlightAware ADS-B
Tue 06:40:55 PM -19.5970 -44.0030 140° Southeast 142 163 3,300 -750 Descending FlightAware ADS-B
Tue 06:41:15 PM -19.6080 -43.9920 137° Southeast 141 162 3,000 -750 Descending FlightAware ADS-B
Tue 06:41:35 PM -19.6180 -43.9830 140° Southeast 141 162 2,800 -600 Descending FlightAware ADS-B
Tue 06:42:00 PM -19.6300 -43.9720 139° Southeast 125 144 -6,720 Descending FlightAware ADS-B

Login

Don't have an account? Register now (free) for customized features, flight alerts, and more!